Sewalls Point, Florida
Current Conditions -  °F | °C
As of 8:47 AM on Sunday 23 Nov 2014 (Local Time) from KSUA Reporting Station
Rain Showers Rain Showers  
Wind Chill: 77°   Ceiling: 3500
Heat Index: 78°   Visibility: 7mi
Dew Point: 73°   Wind: 12mph
Humidity: 89%   Direction: 150°SSE
Pressure: 30.05"   Gusts: 20mph
Location:  27.1868°N, 80.2201°W
Report Text: KSUA 231347Z 15010G17KT 7SM VCSH SCT015 BKN035 25/23 A3005
Loading
Personal Weather Stations






























Interactive Weather Map New forecast layout! Learn more

10-Day Weather Forecast

Advertisements
Track Severe Weather on mobile